Terminal Aerodrome Forecast
Issued by NWS

Home | Current Version | Previous Version | Text Only | Print | Product List | Glossary Off
Versions: 1 2 3 4 5 6 7 8 9 10 11 12 13 14 15 16 17 18 19 20 21 22 23 24 25 26 27 28 29 30 31 32 33 34 35 36 37 38 39 40 41 42 43 44 45 46 47 48 49 50

000
FTUS43 KGRB 091346 AAB
TAFRHI
TAF AMD
KRHI 091346Z 0914/1012 36008G14KT 6SM -SN SCT015 OVC030
      TEMPO 0914/0916 3SM -SHSN BKN015 BKN020
     FM091600 34009G15KT P6SM BKN020
     FM091900 31008KT P6SM SCT020 BKN200
     FM092300 27005KT P6SM SCT025 BKN100
     FM100400 27005KT P6SM SCT015 BKN060
      TEMPO 1009/1012 BKN015=

USA.gov is the U.S. government's official web portal to all federal, state and local government web resources and services.